createdAt,value
2023-01-17T00:11:18.695Z,949.8
2023-01-17T00:25:50.095Z,949.9
2023-01-17T00:40:21.600Z,949.9
2023-01-17T00:54:53.142Z,950.3
2023-01-17T01:09:23.516Z,950.5
2023-01-17T01:23:54.515Z,950.6
2023-01-17T01:38:26.314Z,950.8
2023-01-17T01:52:56.840Z,951.2
2023-01-17T02:07:42.466Z,951.4
2023-01-17T02:22:07.421Z,951.7
2023-01-17T02:36:40.030Z,951.9
2023-01-17T02:51:11.786Z,952.2
2023-01-17T03:05:42.619Z,952.4
2023-01-17T03:20:14.731Z,952.7
2023-01-17T03:34:46.433Z,952.7
2023-01-17T03:49:17.193Z,952.9
2023-01-17T04:03:48.787Z,952.9
2023-01-17T04:18:20.291Z,953.2
2023-01-17T04:32:50.221Z,953.1
2023-01-17T04:47:22.385Z,953.3
2023-01-17T05:01:53.806Z,953.3
2023-01-17T05:16:26.338Z,953.5
2023-01-17T05:30:58.062Z,953.6
2023-01-17T05:45:32.186Z,953.7
2023-01-17T06:00:03.221Z,953.8
2023-01-17T06:14:33.868Z,954.1
2023-01-17T06:29:05.476Z,954.2
2023-01-17T06:43:33.590Z,954.2
2023-01-17T06:58:06.013Z,954.4
2023-01-17T07:12:38.766Z,954.6
2023-01-17T07:27:11.090Z,954.6
2023-01-17T07:41:44.220Z,954.5
2023-01-17T07:56:13.957Z,954.6
2023-01-17T08:10:46.406Z,954.6
2023-01-17T08:25:15.058Z,954.7
2023-01-17T08:39:46.984Z,954.7
2023-01-17T08:54:17.973Z,954.8
2023-01-17T09:08:49.194Z,954.6
2023-01-17T09:23:21.054Z,954.8
2023-01-17T09:37:53.399Z,954.9
2023-01-17T09:52:24.979Z,954.9
2023-01-17T10:06:56.443Z,955
2023-01-17T10:21:28.197Z,955
2023-01-17T10:36:00.645Z,954.9
2023-01-17T10:50:33.248Z,954.9
2023-01-17T11:05:05.281Z,955
2023-01-17T11:19:37.559Z,955
2023-01-17T11:34:09.298Z,954.8
2023-01-17T11:48:41.636Z,954.7
2023-01-17T12:03:13.663Z,954.7
2023-01-17T12:17:46.472Z,954.7
2023-01-17T12:32:17.327Z,954.6
2023-01-17T12:46:48.586Z,954.6
2023-01-17T13:01:20.583Z,954.3
2023-01-17T13:15:51.759Z,954.2
2023-01-17T13:30:24.806Z,954.1
2023-01-17T13:44:57.373Z,954.2
2023-01-17T13:59:28.095Z,954.2
2023-01-17T14:13:58.009Z,954.3
2023-01-17T14:28:29.528Z,954.3
2023-01-17T14:43:00.370Z,954.3
2023-01-17T14:57:31.669Z,954.2
2023-01-17T15:12:03.305Z,954.3
2023-01-17T15:26:35.452Z,954.4
2023-01-17T15:41:06.793Z,954.4
2023-01-17T15:55:38.566Z,954.4
2023-01-17T16:10:10.620Z,954.5
2023-01-17T16:24:40.971Z,954.7
2023-01-17T16:39:11.096Z,954.7
2023-01-17T16:53:41.909Z,954.7
2023-01-17T17:08:13.366Z,954.9
2023-01-17T17:22:45.140Z,955
2023-01-17T17:37:17.906Z,955
2023-01-17T17:51:47.747Z,955.2
2023-01-17T18:06:19.106Z,955.3
2023-01-17T18:20:50.549Z,955.4
2023-01-17T18:35:22.394Z,955.6
2023-01-17T18:49:54.457Z,955.6
2023-01-17T19:04:25.859Z,955.6
2023-01-17T19:18:57.137Z,955.6
2023-01-17T19:33:29.203Z,955.9
2023-01-17T19:47:58.814Z,956
2023-01-17T20:02:30.843Z,956.2
2023-01-17T20:17:02.879Z,956.3
2023-01-17T20:31:33.800Z,956.3
2023-01-17T20:46:03.139Z,956.4
2023-01-17T21:00:34.159Z,956.5
2023-01-17T21:15:06.306Z,956.6
2023-01-17T21:29:36.985Z,956.8
2023-01-17T21:44:08.550Z,956.9
2023-01-17T21:58:38.446Z,957
2023-01-17T22:13:07.127Z,957.1
2023-01-17T22:27:40.958Z,957.2
2023-01-17T22:42:12.669Z,957.2
2023-01-17T22:56:43.393Z,957.3
2023-01-17T23:11:15.245Z,957.2
2023-01-17T23:25:45.289Z,957.3
2023-01-17T23:40:17.157Z,957.1
2023-01-17T23:54:48.177Z,957
